sensor_id;sensor_type;location;lat;lon;timestamp;pressure;altitude;pressure_sealevel;temperature;humidity
22096;BME280;24083;55.670;37.568;2023-06-14T00:05:40;99319.28;;;20.25;58.09
22096;BME280;24083;55.670;37.568;2023-06-14T00:08:24;99317.72;;;20.13;58.59
22096;BME280;24083;55.670;37.568;2023-06-14T00:13:44;99329.97;;;20.14;58.39
22096;BME280;24083;55.670;37.568;2023-06-14T00:16:27;99334.31;;;20.46;57.65
22096;BME280;24083;55.670;37.568;2023-06-14T00:25:19;99322.56;;;20.39;57.69
22096;BME280;24083;55.670;37.568;2023-06-14T00:27:48;99320.22;;;20.14;58.29
22096;BME280;24083;55.670;37.568;2023-06-14T00:33:42;99324.06;;;20.00;58.76
22096;BME280;24083;55.670;37.568;2023-06-14T00:38:53;99324.56;;;19.94;59.09
22096;BME280;24083;55.670;37.568;2023-06-14T00:41:32;99316.31;;;20.09;59.12
22096;BME280;24083;55.670;37.568;2023-06-14T00:50:08;99320.00;;;19.85;60.00
22096;BME280;24083;55.670;37.568;2023-06-14T00:55:12;99322.38;;;19.99;59.79
22096;BME280;24083;55.670;37.568;2023-06-14T01:00:30;99325.13;;;20.19;59.33
22096;BME280;24083;55.670;37.568;2023-06-14T01:03:00;99319.13;;;20.17;59.37
22096;BME280;24083;55.670;37.568;2023-06-14T01:05:29;99320.69;;;19.98;59.88
22096;BME280;24083;55.670;37.568;2023-06-14T01:13:38;99320.09;;;20.47;58.87
22096;BME280;24083;55.670;37.568;2023-06-14T01:18:44;99313.56;;;20.20;59.31
22096;BME280;24083;55.670;37.568;2023-06-14T01:21:42;99319.13;;;20.17;59.57
22096;BME280;24083;55.670;37.568;2023-06-14T01:27:42;99328.66;;;19.87;60.22
22096;BME280;24083;55.670;37.568;2023-06-14T01:30:11;99322.03;;;19.93;60.37
22096;BME280;24083;55.670;37.568;2023-06-14T01:32:39;99322.38;;;19.99;60.57
22096;BME280;24083;55.670;37.568;2023-06-14T01:37:46;99324.63;;;20.04;60.16
22096;BME280;24083;55.670;37.568;2023-06-14T01:43:32;99327.88;;;20.39;59.48
22096;BME280;24083;55.670;37.568;2023-06-14T01:55:06;99330.28;;;20.21;60.40
22096;BME280;24083;55.670;37.568;2023-06-14T01:57:40;99330.84;;;20.24;60.31
22096;BME280;24083;55.670;37.568;2023-06-14T02:00:09;99331.13;;;20.21;60.46
22096;BME280;24083;55.670;37.568;2023-06-14T02:03:04;99331.91;;;20.12;60.51
22096;BME280;24083;55.670;37.568;2023-06-14T02:06:18;99321.50;;;20.20;60.13
22096;BME280;24083;55.670;37.568;2023-06-14T02:08:50;99325.88;;;20.31;60.26
22096;BME280;24083;55.670;37.568;2023-06-14T02:11:21;99328.31;;;20.13;60.78
22096;BME280;24083;55.670;37.568;2023-06-14T02:13:47;99322.72;;;20.16;60.88
22096;BME280;24083;55.670;37.568;2023-06-14T02:16:36;99322.06;;;20.55;59.95
22096;BME280;24083;55.670;37.568;2023-06-14T02:23:07;99324.50;;;20.68;59.70
22096;BME280;24083;55.670;37.568;2023-06-14T02:28:39;99323.91;;;20.95;59.50
22096;BME280;24083;55.670;37.568;2023-06-14T02:31:16;99317.34;;;20.89;59.27
22096;BME280;24083;55.670;37.568;2023-06-14T02:36:41;99329.13;;;20.75;59.63
22096;BME280;24083;55.670;37.568;2023-06-14T02:39:07;99322.53;;;20.70;59.51
22096;BME280;24083;55.670;37.568;2023-06-14T02:47:40;99327.47;;;20.74;59.72
22096;BME280;24083;55.670;37.568;2023-06-14T02:50:17;99337.56;;;20.90;59.86
22096;BME280;24083;55.670;37.568;2023-06-14T02:52:49;99342.69;;;20.51;60.90
22096;BME280;24083;55.670;37.568;2023-06-14T02:55:15;99338.81;;;20.55;60.52
22096;BME280;24083;55.670;37.568;2023-06-14T02:57:47;99345.94;;;20.96;60.46
22096;BME280;24083;55.670;37.568;2023-06-14T03:00:42;99349.63;;;21.34;59.70
22096;BME280;24083;55.670;37.568;2023-06-14T03:03:34;99342.38;;;21.36;59.24
22096;BME280;24083;55.670;37.568;2023-06-14T03:06:00;99339.31;;;21.11;59.91
22096;BME280;24083;55.670;37.568;2023-06-14T03:08:31;99341.41;;;21.47;59.34
22096;BME280;24083;55.670;37.568;2023-06-14T03:20:58;99340.03;;;21.53;59.54
22096;BME280;24083;55.670;37.568;2023-06-14T03:23:28;99337.09;;;21.36;60.39
22096;BME280;24083;55.670;37.568;2023-06-14T03:29:11;99328.47;;;21.83;58.99
22096;BME280;24083;55.670;37.568;2023-06-14T03:34:42;99339.53;;;20.98;60.46
22096;BME280;24083;55.670;37.568;2023-06-14T03:37:16;99329.69;;;21.89;58.96
22096;BME280;24083;55.670;37.568;2023-06-14T03:39:50;99336.50;;;21.23;60.00
22096;BME280;24083;55.670;37.568;2023-06-14T03:45:00;99338.50;;;21.60;59.99
22096;BME280;24083;55.670;37.568;2023-06-14T03:47:39;99341.41;;;21.27;60.33
22096;BME280;24083;55.670;37.568;2023-06-14T03:50:07;99333.47;;;21.96;59.87
22096;BME280;24083;55.670;37.568;2023-06-14T03:55:10;99336.41;;;21.93;59.92
22096;BME280;24083;55.670;37.568;2023-06-14T03:57:54;99346.91;;;21.65;60.49
22096;BME280;24083;55.670;37.568;2023-06-14T04:00:24;99344.69;;;21.70;59.74
22096;BME280;24083;55.670;37.568;2023-06-14T04:02:59;99351.53;;;21.02;60.38
22096;BME280;24083;55.670;37.568;2023-06-14T04:05:26;99348.09;;;21.22;59.18
22096;BME280;24083;55.670;37.568;2023-06-14T04:07:55;99339.06;;;21.73;59.35
22096;BME280;24083;55.670;37.568;2023-06-14T04:10:21;99328.03;;;22.35;59.00
22096;BME280;24083;55.670;37.568;2023-06-14T04:15:17;99337.25;;;22.79;58.20
22096;BME280;24083;55.670;37.568;2023-06-14T04:17:46;99339.34;;;21.90;59.14
22096;BME280;24083;55.670;37.568;2023-06-14T04:20:13;99339.03;;;22.13;58.61
22096;BME280;24083;55.670;37.568;2023-06-14T04:22:42;99345.47;;;21.51;59.23
22096;BME280;24083;55.670;37.568;2023-06-14T04:25:15;99351.16;;;21.07;59.01
22096;BME280;24083;55.670;37.568;2023-06-14T04:33:23;99335.97;;;22.07;57.73
22096;BME280;24083;55.670;37.568;2023-06-14T04:36:03;99346.00;;;21.35;58.29
22096;BME280;24083;55.670;37.568;2023-06-14T04:39:10;99322.16;;;22.42;56.34
22096;BME280;24083;55.670;37.568;2023-06-14T04:44:37;99329.97;;;22.05;56.91
22096;BME280;24083;55.670;37.568;2023-06-14T04:53:26;99323.56;;;22.46;56.14
22096;BME280;24083;55.670;37.568;2023-06-14T04:56:05;99323.19;;;23.15;55.42
22096;BME280;24083;55.670;37.568;2023-06-14T05:04:27;99327.41;;;23.17;54.61
22096;BME280;24083;55.670;37.568;2023-06-14T05:09:26;99322.63;;;23.75;54.27
22096;BME280;24083;55.670;37.568;2023-06-14T05:12:00;99326.75;;;23.33;54.56
22096;BME280;24083;55.670;37.568;2023-06-14T05:14:27;99328.13;;;23.09;54.66
22096;BME280;24083;55.670;37.568;2023-06-14T05:16:59;99332.06;;;21.92;55.60
22096;BME280;24083;55.670;37.568;2023-06-14T05:25:19;99328.19;;;23.00;54.41
22096;BME280;24083;55.670;37.568;2023-06-14T05:27:46;99318.84;;;23.23;53.58
22096;BME280;24083;55.670;37.568;2023-06-14T05:30:15;99331.84;;;23.26;53.46
22096;BME280;24083;55.670;37.568;2023-06-14T05:35:10;99318.38;;;22.82;54.26
22096;BME280;24083;55.670;37.568;2023-06-14T05:37:43;99328.03;;;22.35;54.91
22096;BME280;24083;55.670;37.568;2023-06-14T05:43:14;99322.81;;;22.16;54.77
22096;BME280;24083;55.670;37.568;2023-06-14T05:45:50;99328.25;;;22.24;54.46
22096;BME280;24083;55.670;37.568;2023-06-14T05:48:17;99327.06;;;23.93;53.00
22096;BME280;24083;55.670;37.568;2023-06-14T05:50:50;99327.94;;;22.75;54.20
22096;BME280;24083;55.670;37.568;2023-06-14T05:53:15;99323.41;;;22.57;52.22
22096;BME280;24083;55.670;37.568;2023-06-14T05:55:54;99324.22;;;23.32;52.16
22096;BME280;24083;55.670;37.568;2023-06-14T06:01:29;99322.00;;;22.81;51.84
22096;BME280;24083;55.670;37.568;2023-06-14T06:03:57;99328.84;;;23.84;51.54
22096;BME280;24083;55.670;37.568;2023-06-14T06:09:42;99324.63;;;24.87;49.75
22096;BME280;24083;55.670;37.568;2023-06-14T06:15:05;99329.06;;;24.43;48.86
22096;BME280;24083;55.670;37.568;2023-06-14T06:17:42;99329.13;;;24.86;49.33
22096;BME280;24083;55.670;37.568;2023-06-14T06:26:39;99327.38;;;23.90;48.46
22096;BME280;24083;55.670;37.568;2023-06-14T06:29:07;99313.41;;;24.40;48.32
22096;BME280;24083;55.670;37.568;2023-06-14T06:31:39;99318.06;;;25.32;47.66
22096;BME280;24083;55.670;37.568;2023-06-14T06:36:43;99318.34;;;24.27;47.83
22096;BME280;24083;55.670;37.568;2023-06-14T06:39:08;99318.75;;;24.14;48.41
22096;BME280;24083;55.670;37.568;2023-06-14T06:51:36;99324.25;;;24.73;47.21
22096;BME280;24083;55.670;37.568;2023-06-14T07:35:21;99299.75;;;25.54;45.70
22096;BME280;24083;55.670;37.568;2023-06-14T07:39:11;99298.63;;;24.97;46.14
22096;BME280;24083;55.670;37.568;2023-06-14T07:45:41;99299.59;;;25.56;46.41
22096;BME280;24083;55.670;37.568;2023-06-14T07:48:40;99297.41;;;25.84;46.99
22096;BME280;24083;55.670;37.568;2023-06-14T07:52:30;99299.41;;;25.41;46.96
22096;BME280;24083;55.670;37.568;2023-06-14T07:54:58;99301.31;;;24.89;46.07
22096;BME280;24083;55.670;37.568;2023-06-14T07:57:51;99301.31;;;25.06;46.66
22096;BME280;24083;55.670;37.568;2023-06-14T08:00:53;99295.75;;;25.75;46.61
22096;BME280;24083;55.670;37.568;2023-06-14T08:04:47;99287.72;;;25.83;45.56
22096;BME280;24083;55.670;37.568;2023-06-14T08:11:01;99290.72;;;25.39;46.19
22096;BME280;24083;55.670;37.568;2023-06-14T08:13:34;99283.44;;;26.30;45.20
22096;BME280;24083;55.670;37.568;2023-06-14T08:25:57;99296.78;;;26.78;45.59
22096;BME280;24083;55.670;37.568;2023-06-14T08:28:25;99291.34;;;26.24;46.61
22096;BME280;24083;55.670;37.568;2023-06-14T08:30:51;99305.69;;;25.15;46.80
22096;BME280;24083;55.670;37.568;2023-06-14T08:33:18;99300.84;;;24.59;47.42
22096;BME280;24083;55.670;37.568;2023-06-14T08:35:45;99287.00;;;26.06;45.97
22096;BME280;24083;55.670;37.568;2023-06-14T08:38:12;99284.34;;;25.98;46.17
22096;BME280;24083;55.670;37.568;2023-06-14T08:40:38;99274.50;;;26.55;46.27
22096;BME280;24083;55.670;37.568;2023-06-14T08:43:06;99285.47;;;26.28;46.38
22096;BME280;24083;55.670;37.568;2023-06-14T08:45:33;99287.31;;;26.28;46.63
22096;BME280;24083;55.670;37.568;2023-06-14T08:48:00;99288.34;;;26.18;46.08
22096;BME280;24083;55.670;37.568;2023-06-14T08:50:27;99282.34;;;26.56;45.60
22096;BME280;24083;55.670;37.568;2023-06-14T08:52:59;99276.66;;;26.99;45.40
22096;BME280;24083;55.670;37.568;2023-06-14T08:55:28;99283.28;;;27.03;45.38
22096;BME280;24083;55.670;37.568;2023-06-14T08:57:58;99281.50;;;26.07;45.80
22096;BME280;24083;55.670;37.568;2023-06-14T09:00:26;99285.03;;;25.25;45.90
22096;BME280;24083;55.670;37.568;2023-06-14T09:03:11;99274.66;;;26.05;45.90
22096;BME280;24083;55.670;37.568;2023-06-14T09:06:31;99267.38;;;26.78;44.49
22096;BME280;24083;55.670;37.568;2023-06-14T09:10:24;99268.56;;;26.44;44.63
22096;BME280;24083;55.670;37.568;2023-06-14T09:14:19;99261.53;;;26.43;45.05
22096;BME280;24083;55.670;37.568;2023-06-14T09:16:57;99258.41;;;26.31;44.60
22096;BME280;24083;55.670;37.568;2023-06-14T09:20:05;99257.91;;;26.36;44.89
22096;BME280;24083;55.670;37.568;2023-06-14T09:22:59;99257.94;;;26.28;44.35
22096;BME280;24083;55.670;37.568;2023-06-14T09:25:28;99257.41;;;26.64;43.73
22096;BME280;24083;55.670;37.568;2023-06-14T09:27:56;99262.19;;;26.77;43.47
22096;BME280;24083;55.670;37.568;2023-06-14T09:30:24;99253.25;;;27.01;43.76
22096;BME280;24083;55.670;37.568;2023-06-14T09:36:45;99248.09;;;27.38;43.75
22096;BME280;24083;55.670;37.568;2023-06-14T09:39:33;99243.47;;;27.55;44.33
22096;BME280;24083;55.670;37.568;2023-06-14T09:47:58;99246.34;;;27.07;43.86
22096;BME280;24083;55.670;37.568;2023-06-14T09:50:34;99238.41;;;26.59;44.18
22096;BME280;24083;55.670;37.568;2023-06-14T09:53:11;99248.84;;;26.45;44.73
22096;BME280;24083;55.670;37.568;2023-06-14T09:56:15;99242.53;;;26.38;44.50
22096;BME280;24083;55.670;37.568;2023-06-14T09:59:52;99232.88;;;26.29;45.30
22096;BME280;24083;55.670;37.568;2023-06-14T10:02:21;99235.38;;;27.17;44.03
22096;BME280;24083;55.670;37.568;2023-06-14T10:20:23;99214.94;;;27.01;43.49
22096;BME280;24083;55.670;37.568;2023-06-14T10:25:26;99218.06;;;26.10;44.09
22096;BME280;24083;55.670;37.568;2023-06-14T10:27:54;99215.00;;;26.61;43.62
22096;BME280;24083;55.670;37.568;2023-06-14T10:30:27;99216.84;;;26.29;43.65
22096;BME280;24083;55.670;37.568;2023-06-14T10:35:48;99202.97;;;25.77;44.86
22096;BME280;24083;55.670;37.568;2023-06-14T10:38:14;99206.25;;;25.96;44.67
22096;BME280;24083;55.670;37.568;2023-06-14T10:40:40;99202.84;;;26.10;44.78
22096;BME280;24083;55.670;37.568;2023-06-14T10:43:20;99193.63;;;26.61;44.15
22096;BME280;24083;55.670;37.568;2023-06-14T10:46:14;99201.09;;;26.42;44.12
22096;BME280;24083;55.670;37.568;2023-06-14T10:48:41;99194.13;;;27.11;44.04
22096;BME280;24083;55.670;37.568;2023-06-14T10:51:20;99187.44;;;27.30;43.77
22096;BME280;24083;55.670;37.568;2023-06-14T10:53:47;99192.50;;;26.24;44.03
22096;BME280;24083;55.670;37.568;2023-06-14T10:56:35;99200.84;;;25.56;44.82
22096;BME280;24083;55.670;37.568;2023-06-14T10:59:03;99204.13;;;25.74;44.08
22096;BME280;24083;55.670;37.568;2023-06-14T11:01:47;99195.50;;;27.07;43.60
22096;BME280;24083;55.670;37.568;2023-06-14T11:04:18;99186.44;;;26.61;43.95
22096;BME280;24083;55.670;37.568;2023-06-14T11:06:59;99180.69;;;26.49;43.85
22096;BME280;24083;55.670;37.568;2023-06-14T11:12:15;99176.44;;;27.63;42.58
22096;BME280;24083;55.670;37.568;2023-06-14T11:14:45;99177.09;;;27.95;42.44
22096;BME280;24083;55.670;37.568;2023-06-14T11:17:12;99181.44;;;27.96;42.60
22096;BME280;24083;55.670;37.568;2023-06-14T11:22:38;99173.81;;;26.15;43.22
22096;BME280;24083;55.670;37.568;2023-06-14T11:25:04;99166.94;;;27.61;43.04
22096;BME280;24083;55.670;37.568;2023-06-14T11:27:33;99176.47;;;26.24;43.35
22096;BME280;24083;55.670;37.568;2023-06-14T11:29:59;99169.72;;;27.29;42.43
22096;BME280;24083;55.670;37.568;2023-06-14T11:32:24;99167.03;;;28.12;41.61
22096;BME280;24083;55.670;37.568;2023-06-14T11:34:50;99162.03;;;27.64;41.82
22096;BME280;24083;55.670;37.568;2023-06-14T11:37:17;99162.59;;;28.78;42.53
22096;BME280;24083;55.670;37.568;2023-06-14T11:39:45;99163.59;;;28.55;42.19
22096;BME280;24083;55.670;37.568;2023-06-14T11:42:17;99172.22;;;26.61;43.31
22096;BME280;24083;55.670;37.568;2023-06-14T11:44:47;99167.16;;;26.03;43.43
22096;BME280;24083;55.670;37.568;2023-06-14T11:47:14;99147.84;;;27.49;42.28
22096;BME280;24083;55.670;37.568;2023-06-14T11:49:42;99145.56;;;27.37;42.40
22096;BME280;24083;55.670;37.568;2023-06-14T11:52:12;99149.50;;;27.80;42.10
22096;BME280;24083;55.670;37.568;2023-06-14T11:54:37;99153.38;;;26.31;43.58
22096;BME280;24083;55.670;37.568;2023-06-14T11:57:07;99140.06;;;26.22;43.81
22096;BME280;24083;55.670;37.568;2023-06-14T12:03:16;99138.13;;;26.40;43.15
22096;BME280;24083;55.670;37.568;2023-06-14T12:08:46;99129.44;;;30.07;40.06
22096;BME280;24083;55.670;37.568;2023-06-14T12:11:33;99122.47;;;28.85;40.71
22096;BME280;24083;55.670;37.568;2023-06-14T12:14:05;99132.53;;;30.03;39.67
22096;BME280;24083;55.670;37.568;2023-06-14T12:16:35;99115.00;;;32.28;37.87
22096;BME280;24083;55.670;37.568;2023-06-14T12:19:17;99117.59;;;31.03;38.94
22096;BME280;24083;55.670;37.568;2023-06-14T12:22:32;99115.59;;;32.94;37.50
22096;BME280;24083;55.670;37.568;2023-06-14T12:25:05;99101.72;;;33.35;37.16
22096;BME280;24083;55.670;37.568;2023-06-14T12:30:38;99112.69;;;33.40;37.23
22096;BME280;24083;55.670;37.568;2023-06-14T12:33:26;99106.22;;;33.97;35.35
22096;BME280;24083;55.670;37.568;2023-06-14T12:35:58;99092.94;;;35.63;33.65
22096;BME280;24083;55.670;37.568;2023-06-14T12:38:37;99082.69;;;37.65;32.77
22096;BME280;24083;55.670;37.568;2023-06-14T12:41:12;99085.47;;;37.70;32.03
22096;BME280;24083;55.670;37.568;2023-06-14T12:44:05;99096.13;;;34.65;33.06
22096;BME280;24083;55.670;37.568;2023-06-14T12:47:13;99086.38;;;35.35;33.86
22096;BME280;24083;55.670;37.568;2023-06-14T12:49:51;99094.81;;;33.20;35.19
22096;BME280;24083;55.670;37.568;2023-06-14T12:52:42;99092.16;;;34.37;35.05
22096;BME280;24083;55.670;37.568;2023-06-14T12:55:09;99098.03;;;32.14;36.14
22096;BME280;24083;55.670;37.568;2023-06-14T12:57:39;99084.19;;;33.44;34.89
22096;BME280;24083;55.670;37.568;2023-06-14T13:01:09;99081.31;;;33.39;34.39
22096;BME280;24083;55.670;37.568;2023-06-14T13:04:03;99085.66;;;33.96;34.46
22096;BME280;24083;55.670;37.568;2023-06-14T13:06:33;99071.72;;;33.62;33.52
22096;BME280;24083;55.670;37.568;2023-06-14T13:09:22;99095.50;;;31.87;35.66
22096;BME280;24083;55.670;37.568;2023-06-14T13:11:49;99093.25;;;32.55;35.35
22096;BME280;24083;55.670;37.568;2023-06-14T13:14:15;99093.81;;;30.80;35.77
22096;BME280;24083;55.670;37.568;2023-06-14T13:16:42;99084.03;;;32.69;34.42
22096;BME280;24083;55.670;37.568;2023-06-14T13:19:09;99080.31;;;31.93;34.70
22096;BME280;24083;55.670;37.568;2023-06-14T13:21:34;99075.94;;;33.39;34.96
22096;BME280;24083;55.670;37.568;2023-06-14T13:24:00;99072.06;;;36.05;33.28
22096;BME280;24083;55.670;37.568;2023-06-14T13:26:26;99068.66;;;36.27;32.93
22096;BME280;24083;55.670;37.568;2023-06-14T13:28:52;99052.13;;;38.35;32.32
22096;BME280;24083;55.670;37.568;2023-06-14T13:31:18;99056.44;;;39.55;30.75
22096;BME280;24083;55.670;37.568;2023-06-14T13:33:43;99064.88;;;38.29;31.12
22096;BME280;24083;55.670;37.568;2023-06-14T13:36:12;99068.38;;;34.70;33.25
22096;BME280;24083;55.670;37.568;2023-06-14T13:38:39;99061.34;;;37.52;32.29
22096;BME280;24083;55.670;37.568;2023-06-14T13:41:17;99067.97;;;35.61;32.64
22096;BME280;24083;55.670;37.568;2023-06-14T13:43:43;99067.38;;;36.46;32.29
22096;BME280;24083;55.670;37.568;2023-06-14T13:46:15;99047.84;;;37.84;31.26
22096;BME280;24083;55.670;37.568;2023-06-14T13:48:44;99057.13;;;35.61;31.78
22096;BME280;24083;55.670;37.568;2023-06-14T13:51:30;99044.41;;;38.54;31.20
22096;BME280;24083;55.670;37.568;2023-06-14T13:53:57;99033.13;;;40.47;30.34
22096;BME280;24083;55.670;37.568;2023-06-14T13:56:23;99041.00;;;40.90;29.64
22096;BME280;24083;55.670;37.568;2023-06-14T13:58:50;99035.81;;;40.88;28.96
22096;BME280;24083;55.670;37.568;2023-06-14T14:01:17;99043.59;;;38.92;29.79
22096;BME280;24083;55.670;37.568;2023-06-14T14:03:47;99044.31;;;40.71;29.31
22096;BME280;24083;55.670;37.568;2023-06-14T14:06:14;99053.75;;;38.64;30.40
22096;BME280;24083;55.670;37.568;2023-06-14T14:08:40;99042.41;;;40.41;29.64
22096;BME280;24083;55.670;37.568;2023-06-14T14:11:09;99043.50;;;40.76;29.06
22096;BME280;24083;55.670;37.568;2023-06-14T14:13:36;99046.47;;;40.07;29.24
22096;BME280;24083;55.670;37.568;2023-06-14T14:16:02;99054.22;;;36.38;30.88
22096;BME280;24083;55.670;37.568;2023-06-14T14:18:28;99053.38;;;38.55;29.83
22096;BME280;24083;55.670;37.568;2023-06-14T14:20:54;99045.72;;;40.22;29.35
22096;BME280;24083;55.670;37.568;2023-06-14T14:23:19;99046.66;;;36.57;31.11
22096;BME280;24083;55.670;37.568;2023-06-14T14:25:46;99030.25;;;38.95;29.98
22096;BME280;24083;55.670;37.568;2023-06-14T14:28:11;99041.13;;;38.52;29.83
22096;BME280;24083;55.670;37.568;2023-06-14T14:30:39;99037.94;;;39.67;29.52
22096;BME280;24083;55.670;37.568;2023-06-14T14:33:14;99040.97;;;39.07;29.75
22096;BME280;24083;55.670;37.568;2023-06-14T14:35:43;99045.09;;;38.07;29.46
22096;BME280;24083;55.670;37.568;2023-06-14T14:38:12;99044.91;;;37.02;30.34
22096;BME280;24083;55.670;37.568;2023-06-14T14:40:39;99041.09;;;39.33;28.91
22096;BME280;24083;55.670;37.568;2023-06-14T14:43:04;99035.06;;;41.43;28.08
22096;BME280;24083;55.670;37.568;2023-06-14T14:45:30;99046.47;;;39.97;28.77
22096;BME280;24083;55.670;37.568;2023-06-14T14:47:56;99050.06;;;37.65;28.99
22096;BME280;24083;55.670;37.568;2023-06-14T14:50:22;99061.59;;;36.26;30.20
22096;BME280;24083;55.670;37.568;2023-06-14T14:55:19;99047.00;;;39.20;29.46
22096;BME280;24083;55.670;37.568;2023-06-14T14:57:51;99060.72;;;33.94;31.07
22096;BME280;24083;55.670;37.568;2023-06-14T15:00:21;99057.09;;;34.97;30.78
22096;BME280;24083;55.670;37.568;2023-06-14T15:02:49;99054.25;;;34.91;30.78
22096;BME280;24083;55.670;37.568;2023-06-14T15:05:14;99041.41;;;35.75;30.47
22096;BME280;24083;55.670;37.568;2023-06-14T15:07:41;99050.56;;;33.40;31.65
22096;BME280;24083;55.670;37.568;2023-06-14T15:10:07;99063.59;;;33.24;32.12
22096;BME280;24083;55.670;37.568;2023-06-14T15:12:34;99050.72;;;34.25;31.72
22096;BME280;24083;55.670;37.568;2023-06-14T15:15:02;99057.31;;;34.71;31.00
22096;BME280;24083;55.670;37.568;2023-06-14T15:17:31;99056.22;;;34.48;30.97
22096;BME280;24083;55.670;37.568;2023-06-14T15:19:58;99055.75;;;34.52;30.73
22096;BME280;24083;55.670;37.568;2023-06-14T15:22:27;99057.78;;;34.26;30.54
22096;BME280;24083;55.670;37.568;2023-06-14T15:24:54;99051.53;;;35.27;29.95
22096;BME280;24083;55.670;37.568;2023-06-14T15:27:23;99054.16;;;36.04;29.59
22096;BME280;24083;55.670;37.568;2023-06-14T15:29:51;99057.13;;;37.22;29.67
22096;BME280;24083;55.670;37.568;2023-06-14T15:32:18;99060.50;;;35.16;30.02
22096;BME280;24083;55.670;37.568;2023-06-14T15:34:46;99060.81;;;35.84;29.87
22096;BME280;24083;55.670;37.568;2023-06-14T15:37:13;99061.91;;;35.18;30.57
22096;BME280;24083;55.670;37.568;2023-06-14T15:39:39;99058.88;;;36.26;30.44
22096;BME280;24083;55.670;37.568;2023-06-14T15:42:05;99055.00;;;36.21;30.74
22096;BME280;24083;55.670;37.568;2023-06-14T15:44:32;99064.94;;;33.15;31.25
22096;BME280;24083;55.670;37.568;2023-06-14T15:46:59;99066.03;;;33.33;32.28
22096;BME280;24083;55.670;37.568;2023-06-14T15:49:36;99068.75;;;34.31;31.95
22096;BME280;24083;55.670;37.568;2023-06-14T15:52:04;99063.53;;;37.16;30.38
22096;BME280;24083;55.670;37.568;2023-06-14T15:54:30;99065.50;;;36.01;30.37
22096;BME280;24083;55.670;37.568;2023-06-14T15:56:58;99071.16;;;34.51;31.41
22096;BME280;24083;55.670;37.568;2023-06-14T15:59:30;99063.91;;;36.34;29.82
22096;BME280;24083;55.670;37.568;2023-06-14T16:01:56;99065.97;;;34.07;31.21
22096;BME280;24083;55.670;37.568;2023-06-14T16:04:24;99065.41;;;35.43;30.46
22096;BME280;24083;55.670;37.568;2023-06-14T16:06:51;99069.06;;;35.89;30.68
22096;BME280;24083;55.670;37.568;2023-06-14T16:09:24;99066.75;;;35.16;30.51
22096;BME280;24083;55.670;37.568;2023-06-14T16:11:50;99065.19;;;35.32;30.80
22096;BME280;24083;55.670;37.568;2023-06-14T16:14:17;99074.56;;;36.23;30.94
22096;BME280;24083;55.670;37.568;2023-06-14T16:16:44;99071.56;;;34.67;31.16
22096;BME280;24083;55.670;37.568;2023-06-14T16:21:41;99066.56;;;34.52;31.34
22096;BME280;24083;55.670;37.568;2023-06-14T16:24:11;99068.03;;;34.90;31.26
22096;BME280;24083;55.670;37.568;2023-06-14T16:26:39;99062.75;;;36.30;30.27
22096;BME280;24083;55.670;37.568;2023-06-14T16:29:06;99070.25;;;35.82;30.33
22096;BME280;24083;55.670;37.568;2023-06-14T16:31:33;99072.63;;;36.36;30.65
22096;BME280;24083;55.670;37.568;2023-06-14T16:33:58;99071.41;;;33.70;31.31
22096;BME280;24083;55.670;37.568;2023-06-14T16:36:26;99069.91;;;35.01;31.01
22096;BME280;24083;55.670;37.568;2023-06-14T16:38:53;99065.50;;;35.60;30.85
22096;BME280;24083;55.670;37.568;2023-06-14T16:41:18;99073.50;;;35.95;30.76
22096;BME280;24083;55.670;37.568;2023-06-14T16:43:45;99076.88;;;34.31;30.64
22096;BME280;24083;55.670;37.568;2023-06-14T16:46:13;99081.28;;;33.02;32.43
22096;BME280;24083;55.670;37.568;2023-06-14T16:48:40;99082.34;;;34.55;31.65
22096;BME280;24083;55.670;37.568;2023-06-14T16:51:06;99083.22;;;34.91;31.54
22096;BME280;24083;55.670;37.568;2023-06-14T16:53:33;99092.97;;;34.26;31.67
22096;BME280;24083;55.670;37.568;2023-06-14T16:58:32;99090.63;;;33.43;32.18
22096;BME280;24083;55.670;37.568;2023-06-14T17:01:03;99089.53;;;33.07;32.60
22096;BME280;24083;55.670;37.568;2023-06-14T17:03:28;99097.88;;;31.57;33.54
22096;BME280;24083;55.670;37.568;2023-06-14T17:08:36;99102.25;;;31.44;34.10
22096;BME280;24083;55.670;37.568;2023-06-14T17:11:05;99092.16;;;31.19;34.43
22096;BME280;24083;55.670;37.568;2023-06-14T17:13:38;99100.47;;;31.83;34.39
22096;BME280;24083;55.670;37.568;2023-06-14T17:16:14;99097.94;;;32.34;33.92
22096;BME280;24083;55.670;37.568;2023-06-14T17:18:42;99103.53;;;31.08;34.99
22096;BME280;24083;55.670;37.568;2023-06-14T17:21:08;99102.50;;;30.82;35.08
22096;BME280;24083;55.670;37.568;2023-06-14T17:23:34;99108.94;;;31.21;35.23
22096;BME280;24083;55.670;37.568;2023-06-14T17:26:01;99106.53;;;30.24;35.51
22096;BME280;24083;55.670;37.568;2023-06-14T17:28:26;99104.03;;;30.16;35.54
22096;BME280;24083;55.670;37.568;2023-06-14T17:30:52;99108.06;;;29.50;36.80
22096;BME280;24083;55.670;37.568;2023-06-14T17:33:17;99112.59;;;29.21;36.35
22096;BME280;24083;55.670;37.568;2023-06-14T17:35:43;99112.28;;;28.80;37.00
22096;BME280;24083;55.670;37.568;2023-06-14T17:43:52;99119.72;;;28.05;38.83
22096;BME280;24083;55.670;37.568;2023-06-14T17:46:30;99109.63;;;27.02;39.29
22096;BME280;24083;55.670;37.568;2023-06-14T17:48:56;99118.44;;;27.40;39.62
22096;BME280;24083;55.670;37.568;2023-06-14T17:51:21;99122.59;;;26.90;40.11
22096;BME280;24083;55.670;37.568;2023-06-14T17:53:52;99125.59;;;26.17;40.60
22096;BME280;24083;55.670;37.568;2023-06-14T17:56:18;99134.22;;;26.74;40.03
22096;BME280;24083;55.670;37.568;2023-06-14T17:58:45;99129.25;;;26.94;39.89
22096;BME280;24083;55.670;37.568;2023-06-14T18:03:59;99146.53;;;26.28;40.67
22096;BME280;24083;55.670;37.568;2023-06-14T18:06:26;99135.59;;;26.06;41.21